map of YAK home
YAK - Airport
Location
City:  Yakutat, Alaska, United States
ICAO:PAYA
IATA:YAK
FAA LID:YAK

Details
Type:Airport (Part 139 Class I)
Use:Public/Civil
Latitude:5930'12"N (59.503323)
Longitude:13939'37"W (-139.660267)
Datum:WGS 1984
Elevation:39 ft (12 m)
Variation:18.47E (WMM2015v2 magnetic declination)
-0.25 annual change
Runways:2
Longest:7732 × 150 ft (2357 × 45.5 m), paved

Time
Time Zone:UTC-9 (DST-8)
Local Time:

Weather
METAR:PAYA 041353Z AUTO 08005KT 8SM FEW008 OVC013 M01/M01 A2999 RMK AO2 SLP155 T10061011 TSNO
TAF:PAYA 041131Z 0412/0512 07005KT 6SM BR VCSH OVC035
TEMPO 0412/0416 2SM -SHSN OVC012
FM041600 VRB03KT 3SM -SHSN BR BKN015 OVC025
FM042200 09004KT P6SM VCSH SCT015 OVC035
FM050300 00000KT P6SM SCT035 OVC050
AMD LTD TO CLD VIS AND WIND

Related Locations
Nearby:
Farthest:FACF: 10545 mi / 16971 km
St. Francis [St. Francis Field], EC, ZA

Find:

   beyond  
but within

Other Information
Maps:
NOTAMs:
Links:
Sources:

  
  • flag of United States
  • flag of Alaska
  

Sectional Chart

Flight Planning
at skyvector.com

Satellite Image

Google Maps Satellite view

 

Copyright © 2004-2019 Karl L. Swartz. All rights reserved.
The Great Circle Mapper name and logo are trademarks of the Great Circle Mapper.
All other trademarks mentioned herein belong to their respective owners.
Please see credits for attibutions and further copyright information.

  Follow gcmap on Facebook Follow gcmap on Twitter GCmap on LinkedIn

hCard Microformat

Geo Microformat